WMKM/MKZ METAR and TAF weather

Enter ICAO airport designator
Station Type Date Time Source
WMKM METAR 2020/07/12 01:00 UTC NOAA

WMKM 120100Z 34003KT 260V070 9999 FEW017CB 27/25 Q1011


Station Type Date Time Source
WMKM Decoded METAR 2020/07/12 01:00 UTC NOAA

Malacca, Malaysia (WMKM) 02-16N 102-15E 9M
Jul 11, 2020 - 09:00 PM EDT / 2020.07.12 0100 UTC
Wind: from the NNW (340 degrees) at 3 MPH (3 KT) (direction variable):0
Visibility: greater than 7 mile(s):0
Sky conditions: mostly clear
Weather: Cumulonimbus clouds observed
Temperature: 80 F (27 C)
Dew Point: 77 F (25 C)
Relative Humidity: 88%
Pressure (altimeter): 29.85 in. Hg (1011 hPa)
ob: WMKM 120100Z 34003KT 260V070 9999 FEW017CB 27/25 Q1011
cycle: 1

Station Type Date Time Source
WMKM TAF 2020/07/11 18:00 UTC NOAA

TAF WMKM 111700Z 1118/1218 VRB02KT 9999 FEW030 PROB30
TEMPO 1120/1200 4000 TSRA FEW017CB SCT018
BECMG 1202/1204 15007KT

Example: see airport list